createdAt,value
2023-05-15T00:00:39.492Z,64.80
2023-05-15T00:03:20.983Z,66.10
2023-05-15T00:08:35.649Z,64.80
2023-05-15T00:16:01.435Z,66.20
2023-05-15T00:18:52.695Z,64.90
2023-05-15T00:21:27.795Z,66.30
2023-05-15T00:24:19.206Z,66.40
2023-05-15T00:27:35.494Z,65.00
2023-05-15T00:30:53.465Z,64.90
2023-05-15T00:33:46.018Z,63.30
2023-05-15T00:39:51.326Z,66.70
2023-05-15T00:45:46.080Z,67.30
2023-05-15T00:48:54.027Z,67.00
2023-05-15T00:51:42.573Z,67.70
2023-05-15T00:54:13.664Z,65.50
2023-05-15T00:56:54.767Z,65.00
2023-05-15T01:00:01.043Z,66.10
2023-05-15T01:03:00.171Z,68.70
2023-05-15T01:05:32.676Z,67.80
2023-05-15T01:09:23.294Z,69.30
2023-05-15T01:12:05.016Z,70.40
2023-05-15T01:14:38.560Z,71.90
2023-05-15T01:17:07.112Z,71.60
2023-05-15T01:19:38.881Z,71.40
2023-05-15T01:23:02.336Z,71.40
2023-05-15T01:25:38.289Z,70.60
2023-05-15T01:29:01.667Z,71.80
2023-05-15T01:31:35.383Z,72.90
2023-05-15T01:34:56.809Z,74.20
2023-05-15T01:48:48.306Z,75.90
2023-05-15T01:51:16.615Z,75.80
2023-05-15T01:54:49.722Z,77.10
2023-05-15T01:57:19.134Z,77.60
2023-05-15T02:01:15.618Z,77.40
2023-05-15T02:35:06.891Z,84.10
2023-05-15T02:49:09.152Z,88.20
2023-05-15T02:51:37.400Z,88.90
2023-05-15T02:54:05.406Z,88.10
2023-05-15T02:56:41.305Z,88.50
2023-05-15T02:59:11.620Z,89.40
2023-05-15T03:01:56.188Z,89.00
2023-05-15T03:04:26.640Z,89.40
2023-05-15T03:07:18.780Z,89.00
2023-05-15T03:11:17.390Z,90.00
2023-05-15T03:17:16.898Z,91.40
2023-05-15T03:21:08.432Z,89.70
2023-05-15T03:28:52.476Z,92.20
2023-05-15T03:31:47.110Z,91.00
2023-05-15T03:34:34.846Z,91.20
2023-05-15T03:37:07.842Z,92.20
2023-05-15T03:40:01.966Z,92.20
2023-05-15T03:42:48.762Z,93.00
2023-05-15T03:45:44.120Z,92.30
2023-05-15T03:48:14.336Z,93.00
2023-05-15T03:57:32.444Z,94.70
2023-05-15T04:03:03.589Z,93.60
2023-05-15T04:06:57.465Z,94.30
2023-05-15T04:09:33.049Z,95.70
2023-05-15T04:50:02.053Z,97.50
2023-05-15T04:52:36.276Z,98.20
2023-05-15T04:55:16.252Z,98.60
2023-05-15T04:57:54.906Z,98.20
2023-05-15T05:00:29.746Z,97.90
2023-05-15T05:03:00.952Z,96.70
2023-05-15T05:05:37.981Z,96.70
2023-05-15T05:11:27.149Z,96.40
2023-05-15T05:14:03.517Z,95.20
2023-05-15T05:16:47.463Z,93.90
2023-05-15T05:19:21.219Z,94.40
2023-05-15T05:21:54.706Z,94.80
2023-05-15T05:24:38.338Z,94.10
2023-05-15T05:27:11.733Z,93.40
2023-05-15T05:30:17.282Z,93.80
2023-05-15T05:32:51.991Z,92.90
2023-05-15T05:35:42.940Z,93.80
2023-05-15T05:38:53.515Z,93.30
2023-05-15T05:41:48.187Z,92.80
2023-05-15T05:44:35.312Z,92.70
2023-05-15T05:47:16.921Z,92.70
2023-05-15T05:49:48.752Z,92.50
2023-05-15T05:52:58.096Z,90.80
2023-05-15T05:55:20.721Z,90.90
2023-05-15T05:58:18.314Z,88.20
2023-05-15T06:01:05.628Z,87.30
2023-05-15T06:03:46.174Z,87.10
2023-05-15T06:06:34.212Z,86.80
2023-05-15T06:09:27.937Z,86.20
2023-05-15T06:12:03.323Z,85.70
2023-05-15T06:22:39.636Z,86.00
2023-05-15T06:25:18.909Z,85.90
2023-05-15T06:30:58.607Z,84.60
2023-05-15T06:43:04.924Z,83.60
2023-05-15T06:45:59.499Z,82.20
2023-05-15T06:49:51.549Z,80.10
2023-05-15T06:51:27.996Z,80.60
2023-05-15T06:54:49.516Z,81.50
2023-05-15T07:01:46.115Z,80.70
2023-05-15T07:14:17.184Z,78.00
2023-05-15T07:18:36.633Z,78.90
2023-05-15T07:48:39.777Z,71.80
2023-05-15T07:51:07.451Z,67.30
2023-05-15T07:57:20.811Z,43.40
2023-05-15T07:59:57.079Z,43.50
2023-05-15T08:02:27.148Z,42.30
2023-05-15T08:04:55.072Z,40.90
2023-05-15T08:07:22.576Z,38.90
2023-05-15T08:09:50.388Z,39.10
2023-05-15T08:12:34.219Z,37.50
2023-05-15T08:15:13.769Z,37.50
2023-05-15T08:18:23.970Z,36.60
2023-05-15T08:21:04.138Z,35.60
2023-05-15T08:23:40.335Z,38.10
2023-05-15T08:26:24.817Z,36.80
2023-05-15T08:28:56.844Z,37.10
2023-05-15T08:31:46.485Z,36.80
2023-05-15T08:34:34.499Z,38.50
2023-05-15T08:37:05.322Z,38.20
2023-05-15T08:39:32.582Z,39.40
2023-05-15T08:42:28.278Z,38.30
2023-05-15T08:45:04.060Z,37.40
2023-05-15T08:47:35.925Z,36.60
2023-05-15T08:50:16.801Z,36.40
2023-05-15T08:52:49.836Z,35.80
2023-05-15T08:55:18.081Z,36.40
2023-05-15T08:57:52.904Z,35.90
2023-05-15T09:00:22.499Z,35.70
2023-05-15T09:02:54.283Z,34.00
2023-05-15T09:05:21.860Z,35.60
2023-05-15T09:07:52.774Z,36.20
2023-05-15T09:10:20.291Z,37.30
2023-05-15T09:12:55.090Z,36.70
2023-05-15T09:15:25.561Z,35.90
2023-05-15T09:17:55.440Z,36.30
2023-05-15T09:20:28.509Z,35.40
2023-05-15T09:23:00.084Z,37.30
2023-05-15T09:25:44.929Z,38.20
2023-05-15T09:28:30.973Z,37.70
2023-05-15T09:31:02.333Z,37.50
2023-05-15T09:33:34.698Z,38.60
2023-05-15T09:36:04.773Z,39.20
2023-05-15T09:38:40.653Z,40.30
2023-05-15T09:41:12.700Z,40.90
2023-05-15T09:43:42.253Z,43.70
2023-05-15T09:46:12.587Z,43.60
2023-05-15T09:48:41.480Z,42.20
2023-05-15T09:51:19.684Z,43.60
2023-05-15T09:53:54.403Z,43.70
2023-05-15T09:56:22.542Z,41.00
2023-05-15T09:58:57.178Z,39.60
2023-05-15T10:01:25.966Z,40.70
2023-05-15T10:04:07.386Z,43.20
2023-05-15T10:06:43.146Z,43.60
2023-05-15T10:09:11.468Z,43.60
2023-05-15T10:11:43.654Z,45.50
2023-05-15T10:14:13.577Z,47.30
2023-05-15T10:16:45.503Z,46.70
2023-05-15T10:19:24.759Z,48.00
2023-05-15T10:21:53.971Z,49.90
2023-05-15T10:24:31.233Z,49.20
2023-05-15T10:26:59.484Z,48.90
2023-05-15T10:29:30.589Z,49.50
2023-05-15T10:32:01.458Z,55.10
2023-05-15T10:34:35.302Z,51.90
2023-05-15T10:37:13.444Z,50.80
2023-05-15T10:39:48.517Z,50.80
2023-05-15T10:42:19.784Z,51.00
2023-05-15T10:44:56.353Z,49.10
2023-05-15T10:47:23.794Z,48.80
2023-05-15T10:49:51.114Z,48.80
2023-05-15T10:52:24.063Z,49.50
2023-05-15T10:54:53.685Z,50.40
2023-05-15T10:57:24.200Z,49.10
2023-05-15T10:59:51.711Z,50.10
2023-05-15T11:02:23.379Z,50.40
2023-05-15T11:05:04.080Z,48.20
2023-05-15T11:07:35.173Z,48.80
2023-05-15T11:10:28.286Z,49.90
2023-05-15T11:13:00.387Z,50.40
2023-05-15T11:15:28.973Z,48.90
2023-05-15T11:18:15.110Z,48.60
2023-05-15T11:21:00.865Z,50.50
2023-05-15T11:23:41.566Z,48.30
2023-05-15T11:26:09.359Z,50.00
2023-05-15T11:28:43.687Z,48.80
2023-05-15T11:31:12.228Z,47.40
2023-05-15T11:33:40.715Z,47.50
2023-05-15T11:36:08.689Z,48.50
2023-05-15T11:38:42.610Z,47.20
2023-05-15T11:41:22.101Z,47.70
2023-05-15T11:43:50.531Z,44.70
2023-05-15T11:46:17.969Z,42.20
2023-05-15T11:48:48.050Z,41.00
2023-05-15T11:51:24.345Z,38.50
2023-05-15T11:53:53.477Z,39.20
2023-05-15T11:56:25.017Z,38.90
2023-05-15T11:58:57.057Z,39.40
2023-05-15T12:01:24.979Z,40.50
2023-05-15T12:03:54.199Z,41.20
2023-05-15T12:06:22.026Z,42.70
2023-05-15T12:08:53.472Z,42.60
2023-05-15T12:11:24.687Z,42.30
2023-05-15T12:13:55.695Z,41.60
2023-05-15T12:16:28.910Z,41.20
2023-05-15T12:19:04.576Z,38.20
2023-05-15T12:21:32.375Z,38.30
2023-05-15T12:24:07.655Z,37.70
2023-05-15T12:26:36.309Z,36.80
2023-05-15T12:29:04.442Z,36.40
2023-05-15T12:31:33.575Z,36.30
2023-05-15T12:34:01.028Z,35.70
2023-05-15T12:36:30.055Z,34.30
2023-05-15T12:38:58.174Z,34.30
2023-05-15T12:41:31.308Z,33.40
2023-05-15T12:43:58.604Z,33.80
2023-05-15T12:46:29.564Z,32.10
2023-05-15T12:48:59.699Z,34.10
2023-05-15T12:51:27.542Z,34.70
2023-05-15T12:53:54.945Z,35.30
2023-05-15T12:56:22.383Z,36.20
2023-05-15T12:58:50.007Z,35.80
2023-05-15T13:01:17.746Z,35.80
2023-05-15T13:03:45.645Z,35.20
2023-05-15T13:06:13.036Z,35.40
2023-05-15T13:08:41.977Z,34.90
2023-05-15T13:11:13.978Z,34.80
2023-05-15T13:13:48.756Z,33.70
2023-05-15T13:16:29.814Z,32.80
2023-05-15T13:19:00.222Z,32.10
2023-05-15T13:21:29.867Z,33.40
2023-05-15T13:23:57.479Z,33.50
2023-05-15T13:26:24.739Z,33.30
2023-05-15T13:28:52.503Z,32.10
2023-05-15T13:31:22.687Z,30.80
2023-05-15T13:33:49.774Z,29.50
2023-05-15T13:36:17.048Z,28.00
2023-05-15T13:38:44.333Z,28.30
2023-05-15T13:41:11.650Z,27.40
2023-05-15T13:43:39.257Z,28.60
2023-05-15T13:46:06.479Z,29.20
2023-05-15T13:48:33.866Z,32.10
2023-05-15T13:51:01.032Z,32.10
2023-05-15T13:53:28.014Z,32.00
2023-05-15T13:55:56.198Z,32.00
2023-05-15T13:58:26.710Z,32.00
2023-05-15T14:00:53.990Z,32.00
2023-05-15T14:03:21.473Z,31.10
2023-05-15T14:05:50.315Z,32.90
2023-05-15T14:08:17.513Z,31.90
2023-05-15T14:10:44.535Z,31.90
2023-05-15T14:13:11.664Z,31.00
2023-05-15T14:15:38.744Z,29.10
2023-05-15T14:18:05.813Z,28.30
2023-05-15T14:20:35.513Z,28.40
2023-05-15T14:23:02.662Z,26.30
2023-05-15T14:25:29.707Z,28.20
2023-05-15T14:27:56.836Z,28.90
2023-05-15T14:30:24.335Z,29.90
2023-05-15T14:32:51.709Z,31.80
2023-05-15T14:35:18.868Z,31.80
2023-05-15T14:37:53.723Z,31.70
2023-05-15T14:43:09.016Z,31.00
2023-05-15T14:45:36.069Z,31.60
2023-05-15T14:48:03.229Z,31.70
2023-05-15T14:50:30.422Z,31.60
2023-05-15T14:52:57.403Z,31.60
2023-05-15T14:55:24.647Z,31.70
2023-05-15T14:57:51.800Z,31.70
2023-05-15T15:00:20.785Z,31.60
2023-05-15T15:02:48.181Z,29.50
2023-05-15T15:05:16.050Z,28.50
2023-05-15T15:08:06.655Z,27.50
2023-05-15T15:10:38.024Z,30.50
2023-05-15T15:13:10.166Z,31.50
2023-05-15T15:15:59.372Z,33.10
2023-05-15T15:19:00.556Z,33.60
2023-05-15T15:21:33.950Z,35.80
2023-05-15T15:24:09.550Z,39.20
2023-05-15T15:26:44.174Z,42.30
2023-05-15T15:29:11.578Z,45.00
2023-05-15T15:31:38.907Z,43.40
2023-05-15T15:34:08.489Z,40.70
2023-05-15T15:36:44.566Z,39.00
2023-05-15T15:39:13.183Z,38.00
2023-05-15T15:41:42.978Z,35.90
2023-05-15T15:44:10.279Z,35.90
2023-05-15T15:46:37.319Z,34.90
2023-05-15T15:49:06.484Z,35.10
2023-05-15T15:51:34.029Z,36.40
2023-05-15T15:54:10.155Z,34.40
2023-05-15T16:00:16.080Z,34.00
2023-05-15T16:02:43.470Z,34.00
2023-05-15T16:05:10.898Z,35.80
2023-05-15T16:07:38.046Z,34.50
2023-05-15T16:10:12.504Z,33.90
2023-05-15T16:12:58.193Z,34.10
2023-05-15T16:15:43.973Z,34.60
2023-05-15T16:18:21.159Z,33.70
2023-05-15T16:21:15.698Z,33.30
2023-05-15T16:23:43.190Z,33.30
2023-05-15T16:26:16.259Z,32.40
2023-05-15T16:28:48.848Z,32.90
2023-05-15T16:31:16.297Z,32.70
2023-05-15T16:33:43.410Z,33.20
2023-05-15T16:36:10.391Z,34.40
2023-05-15T16:38:37.421Z,35.70
2023-05-15T16:41:04.645Z,37.80
2023-05-15T16:43:31.860Z,37.60
2023-05-15T16:45:59.072Z,38.50
2023-05-15T16:48:27.708Z,38.60
2023-05-15T16:50:55.055Z,38.70
2023-05-15T16:53:22.640Z,39.90
2023-05-15T16:55:50.769Z,41.10
2023-05-15T16:58:18.005Z,43.10
2023-05-15T17:00:45.203Z,48.10
2023-05-15T17:03:13.076Z,44.00
2023-05-15T17:05:40.588Z,48.30
2023-05-15T17:08:07.741Z,51.00
2023-05-15T17:10:36.152Z,51.40
2023-05-15T17:13:03.123Z,51.90
2023-05-15T17:15:30.368Z,50.80
2023-05-15T17:17:58.802Z,52.30
2023-05-15T17:20:27.382Z,52.30
2023-05-15T17:22:54.426Z,54.80
2023-05-15T17:26:59.736Z,51.20
2023-05-15T17:29:56.757Z,52.70
2023-05-15T17:32:52.770Z,49.40
2023-05-15T17:39:01.344Z,51.80
2023-05-15T17:41:32.816Z,52.20
2023-05-15T17:44:17.813Z,50.10
2023-05-15T17:47:09.112Z,48.60
2023-05-15T17:49:42.252Z,50.00
2023-05-15T17:52:27.087Z,49.90
2023-05-15T17:54:56.908Z,51.10
2023-05-15T17:57:28.675Z,50.30
2023-05-15T17:59:56.463Z,55.10
2023-05-15T18:02:24.002Z,50.40
2023-05-15T18:04:52.094Z,49.60
2023-05-15T18:07:19.749Z,48.60
2023-05-15T18:09:51.203Z,48.80
2023-05-15T18:12:20.958Z,47.60
2023-05-15T18:14:50.357Z,47.20
2023-05-15T18:17:18.401Z,46.90
2023-05-15T18:19:46.268Z,47.10
2023-05-15T18:22:26.858Z,45.90
2023-05-15T18:24:55.339Z,47.20
2023-05-15T18:27:24.409Z,42.80
2023-05-15T18:29:53.133Z,44.70
2023-05-15T18:32:26.843Z,44.00
2023-05-15T18:53:50.564Z,42.70
2023-05-15T18:56:26.420Z,42.50
2023-05-15T18:59:03.342Z,42.60
2023-05-15T19:01:37.702Z,42.60
2023-05-15T19:04:28.755Z,42.50
2023-05-15T19:11:34.464Z,42.50
2023-05-15T19:14:04.302Z,43.60
2023-05-15T19:16:51.466Z,44.50
2023-05-15T19:19:25.894Z,42.90
2023-05-15T19:23:14.022Z,44.70
2023-05-15T19:25:22.015Z,47.20
2023-05-15T19:27:58.185Z,49.10
2023-05-15T19:31:27.820Z,49.40
2023-05-15T19:34:01.071Z,51.30
2023-05-15T19:37:00.651Z,51.20
2023-05-15T19:39:28.318Z,50.50
2023-05-15T19:46:12.016Z,55.70
2023-05-15T19:50:14.877Z,56.70
2023-05-15T19:56:59.212Z,60.60
2023-05-15T20:03:01.156Z,61.90
2023-05-15T20:06:17.800Z,64.50
2023-05-15T20:08:50.298Z,63.20
2023-05-15T20:11:21.452Z,66.50
2023-05-15T20:15:23.833Z,64.10
2023-05-15T20:18:32.911Z,66.20
2023-05-15T20:21:29.727Z,62.50
2023-05-15T20:25:26.782Z,58.90
2023-05-15T20:29:07.003Z,54.00
2023-05-15T20:35:00.870Z,47.30
2023-05-15T20:37:47.955Z,44.40
2023-05-15T20:41:11.647Z,44.40
2023-05-15T21:06:31.987Z,38.10
2023-05-15T21:09:04.960Z,38.90
2023-05-15T21:11:32.637Z,37.50
2023-05-15T21:14:02.459Z,38.00
2023-05-15T21:16:30.128Z,38.10
2023-05-15T21:18:58.705Z,38.10
2023-05-15T21:21:26.059Z,36.10
2023-05-15T21:23:53.356Z,36.80
2023-05-15T21:26:23.286Z,35.70
2023-05-15T21:28:50.422Z,34.70
2023-05-15T21:31:17.750Z,34.50
2023-05-15T21:33:45.020Z,35.30
2023-05-15T21:36:12.691Z,33.20
2023-05-15T21:38:40.171Z,33.80
2023-05-15T21:41:07.296Z,32.80
2023-05-15T21:43:34.742Z,32.40
2023-05-15T21:46:02.075Z,33.20
2023-05-15T21:48:31.308Z,32.50
2023-05-15T21:50:58.666Z,33.00
2023-05-15T21:53:26.120Z,32.90
2023-05-15T21:55:59.617Z,33.70
2023-05-15T21:58:27.181Z,33.30
2023-05-15T22:00:54.532Z,34.70
2023-05-15T22:03:22.081Z,34.90
2023-05-15T22:05:50.409Z,36.30
2023-05-15T22:08:17.485Z,35.40
2023-05-15T22:10:45.108Z,34.60
2023-05-15T22:13:13.978Z,35.20
2023-05-15T22:15:41.172Z,35.20
2023-05-15T22:18:08.326Z,35.40
2023-05-15T22:20:36.268Z,34.60
2023-05-15T22:23:03.625Z,35.70
2023-05-15T22:25:31.530Z,35.90
2023-05-15T22:27:58.807Z,36.20
2023-05-15T22:30:26.119Z,36.30
2023-05-15T22:32:53.402Z,37.00
2023-05-15T22:35:20.726Z,36.60
2023-05-15T22:37:49.070Z,36.70
2023-05-15T22:40:16.313Z,37.00
2023-05-15T22:42:43.566Z,37.90
2023-05-15T22:45:14.237Z,37.80
2023-05-15T22:47:41.345Z,38.50
2023-05-15T22:50:09.018Z,37.90
2023-05-15T22:52:36.001Z,39.40
2023-05-15T22:55:03.222Z,39.30
2023-05-15T22:57:30.351Z,39.50
2023-05-15T22:59:57.342Z,40.40
2023-05-15T23:02:25.900Z,40.10
2023-05-15T23:04:53.128Z,39.80
2023-05-15T23:07:20.593Z,40.30
2023-05-15T23:09:47.904Z,40.50
2023-05-15T23:12:15.054Z,40.20
2023-05-15T23:14:42.244Z,39.80
2023-05-15T23:17:09.469Z,39.70
2023-05-15T23:19:36.595Z,40.20
2023-05-15T23:22:03.878Z,39.80
2023-05-15T23:24:31.182Z,40.30
2023-05-15T23:26:58.347Z,39.70
2023-05-15T23:29:25.623Z,41.40
2023-05-15T23:31:55.379Z,41.40
2023-05-15T23:34:22.695Z,40.10
2023-05-15T23:36:49.869Z,41.40
2023-05-15T23:39:16.976Z,39.10
2023-05-15T23:41:44.161Z,40.20
2023-05-15T23:44:11.221Z,39.40
2023-05-15T23:46:39.717Z,40.80
2023-05-15T23:49:07.279Z,40.00
2023-05-15T23:51:34.448Z,41.40
2023-05-15T23:54:01.690Z,41.30
2023-05-15T23:56:30.225Z,41.30
2023-05-15T23:58:57.354Z,41.30
